createdAt,value
2023-01-01T00:04:42.677Z,11.20
2023-01-01T00:10:03.505Z,11.30
2023-01-01T00:15:06.036Z,11.40
2023-01-01T00:20:08.583Z,11.40
2023-01-01T00:25:11.667Z,11.50
2023-01-01T00:30:14.042Z,11.50
2023-01-01T00:35:16.201Z,11.60
2023-01-01T00:40:18.870Z,11.60
2023-01-01T00:45:22.712Z,11.60
2023-01-01T00:50:25.157Z,11.60
2023-01-01T00:55:27.283Z,11.60
2023-01-01T01:00:29.483Z,11.60
2023-01-01T01:05:32.963Z,11.60
2023-01-01T01:10:35.090Z,11.50
2023-01-01T01:15:38.400Z,11.50
2023-01-01T01:20:40.543Z,11.50
2023-01-01T01:25:42.849Z,11.50
2023-01-01T01:30:45.063Z,11.50
2023-01-01T01:35:52.089Z,11.50
2023-01-01T01:40:54.310Z,11.50
2023-01-01T01:46:04.448Z,11.50
2023-01-01T01:51:07.601Z,11.50
2023-01-01T01:56:15.034Z,11.50
2023-01-01T02:01:17.455Z,11.50
2023-01-01T02:06:20.605Z,11.50
2023-01-01T02:11:22.709Z,11.50
2023-01-01T02:16:33.685Z,11.50
2023-01-01T02:22:00.199Z,11.40
2023-01-01T02:27:37.617Z,11.40
2023-01-01T02:32:45.466Z,11.40
2023-01-01T02:37:50.429Z,11.30
2023-01-01T02:42:54.080Z,11.20
2023-01-01T02:47:56.482Z,11.20
2023-01-01T02:53:33.627Z,11.10
2023-01-01T02:59:23.529Z,11.10
2023-01-01T03:04:37.907Z,11.10
2023-01-01T03:10:02.056Z,11.10
2023-01-01T03:15:20.799Z,11.00
2023-01-01T03:20:27.753Z,10.90
2023-01-01T03:25:38.866Z,10.90
2023-01-01T03:30:44.546Z,10.80
2023-01-01T03:36:04.965Z,10.80
2023-01-01T03:42:00.340Z,10.80
2023-01-01T03:47:04.835Z,10.80
2023-01-01T03:52:44.462Z,10.90
2023-01-01T03:57:55.108Z,10.90
2023-01-01T04:03:07.056Z,10.90
2023-01-01T04:08:10.611Z,11.00
2023-01-01T04:13:13.090Z,11.00
2023-01-01T04:18:15.203Z,11.00
2023-01-01T04:23:17.310Z,11.00
2023-01-01T04:28:20.375Z,11.00
2023-01-01T04:33:22.568Z,11.00
2023-01-01T04:38:24.705Z,11.00
2023-01-01T04:43:27.016Z,11.00
2023-01-01T04:48:30.957Z,11.00
2023-01-01T04:53:34.816Z,11.00
2023-01-01T04:58:39.719Z,11.00
2023-01-01T05:03:41.879Z,10.90
2023-01-01T05:08:46.076Z,10.90
2023-01-01T05:13:50.534Z,10.90
2023-01-01T05:18:52.950Z,10.90
2023-01-01T05:24:06.226Z,10.90
2023-01-01T05:29:15.551Z,10.80
2023-01-01T05:34:18.871Z,10.80
2023-01-01T05:39:21.121Z,10.70
2023-01-01T05:44:23.228Z,10.70
2023-01-01T05:49:25.291Z,10.70
2023-01-01T05:54:27.445Z,10.70
2023-01-01T05:59:29.577Z,10.60
2023-01-01T06:04:31.762Z,10.60
2023-01-01T06:09:33.863Z,10.60
2023-01-01T06:14:35.931Z,10.70
2023-01-01T06:19:38.023Z,10.60
2023-01-01T06:24:40.086Z,10.60
2023-01-01T06:29:42.157Z,10.60
2023-01-01T06:34:44.365Z,10.60
2023-01-01T06:39:46.695Z,10.60
2023-01-01T06:44:48.815Z,10.60
2023-01-01T06:49:50.905Z,10.60
2023-01-01T06:54:53.391Z,10.60
2023-01-01T06:59:55.486Z,10.50
2023-01-01T07:04:57.556Z,10.60
2023-01-01T07:09:59.648Z,10.60
2023-01-01T07:15:01.707Z,10.60
2023-01-01T07:20:06.727Z,10.50
2023-01-01T07:25:14.174Z,10.50
2023-01-01T07:30:16.260Z,10.50
2023-01-01T07:35:18.329Z,10.60
2023-01-01T07:40:20.460Z,10.60
2023-01-01T07:45:22.559Z,10.60
2023-01-01T07:50:26.563Z,10.60
2023-01-01T07:55:28.637Z,10.60
2023-01-01T08:00:30.716Z,10.60
2023-01-01T08:05:34.159Z,10.60
2023-01-01T08:10:36.555Z,10.60
2023-01-01T08:15:38.704Z,10.70
2023-01-01T08:20:40.829Z,10.70
2023-01-01T08:25:42.919Z,10.70
2023-01-01T08:30:45.054Z,10.80
2023-01-01T08:35:53.657Z,10.80
2023-01-01T08:40:56.190Z,10.80
2023-01-01T08:45:59.834Z,10.90
2023-01-01T08:51:02.363Z,10.90
2023-01-01T08:56:07.524Z,10.90
2023-01-01T09:01:10.739Z,10.90
2023-01-01T09:06:13.024Z,11.00
2023-01-01T09:11:21.145Z,10.90
2023-01-01T09:16:23.600Z,10.80
2023-01-01T09:21:25.733Z,10.70
2023-01-01T09:26:27.861Z,10.60
2023-01-01T09:31:30.006Z,10.60
2023-01-01T09:36:32.995Z,10.50
2023-01-01T09:42:02.974Z,10.50
2023-01-01T09:47:20.588Z,10.50
2023-01-01T09:52:23.030Z,10.50
2023-01-01T09:57:29.875Z,10.60
2023-01-01T10:02:53.629Z,10.60
2023-01-01T10:08:22.779Z,10.60
2023-01-01T10:13:39.266Z,10.70
2023-01-01T10:18:43.131Z,10.80
2023-01-01T10:24:03.762Z,10.80
2023-01-01T10:29:14.839Z,10.90
2023-01-01T10:34:28.385Z,11.00
2023-01-01T10:39:30.646Z,11.10
2023-01-01T10:44:34.869Z,11.00
2023-01-01T10:50:07.741Z,11.00
2023-01-01T10:55:25.835Z,11.00
2023-01-01T11:00:29.053Z,11.00
2023-01-01T11:05:31.403Z,10.90
2023-01-01T11:10:33.579Z,10.90
2023-01-01T11:15:39.531Z,10.90
2023-01-01T11:20:41.819Z,10.90
2023-01-01T11:26:24.654Z,10.90
2023-01-01T11:31:39.765Z,10.90
2023-01-01T11:36:41.963Z,10.80
2023-01-01T11:41:48.166Z,10.70
2023-01-01T11:46:50.661Z,10.60
2023-01-01T11:51:52.887Z,10.60
2023-01-01T11:57:07.411Z,10.50
2023-01-01T12:02:15.345Z,10.50
2023-01-01T12:07:23.185Z,10.40
2023-01-01T12:12:37.796Z,10.40
2023-01-01T12:17:41.383Z,10.40
2023-01-01T12:22:43.624Z,10.50
2023-01-01T12:28:19.696Z,10.50
2023-01-01T12:33:47.866Z,10.50
2023-01-01T12:39:08.610Z,10.50
2023-01-01T12:44:43.326Z,10.50
2023-01-01T12:50:05.018Z,10.60
2023-01-01T12:55:36.368Z,10.70
2023-01-01T13:00:39.896Z,10.80
2023-01-01T13:05:51.300Z,10.80
2023-01-01T13:10:57.564Z,10.90
2023-01-01T13:15:59.862Z,11.00
2023-01-01T13:21:18.120Z,11.20
2023-01-01T13:26:21.633Z,11.30
2023-01-01T13:31:39.516Z,11.30
2023-01-01T13:36:41.850Z,11.40
2023-01-01T13:41:45.699Z,11.30
2023-01-01T13:47:23.139Z,11.20
2023-01-01T13:52:55.797Z,11.10
2023-01-01T13:58:35.037Z,11.10
2023-01-01T14:03:42.537Z,11.00
2023-01-01T14:08:45.122Z,11.00
2023-01-01T14:13:48.080Z,10.90
2023-01-01T14:18:53.642Z,10.90
2023-01-01T14:23:59.543Z,10.90
2023-01-01T14:29:08.868Z,10.90
2023-01-01T14:34:27.105Z,10.90
2023-01-01T14:39:36.928Z,10.80
2023-01-01T14:44:44.622Z,10.80
2023-01-01T14:49:48.286Z,10.90
2023-01-01T14:54:51.179Z,10.80
2023-01-01T14:59:56.806Z,10.90
2023-01-01T15:05:14.900Z,10.70
2023-01-01T15:10:17.033Z,10.70
2023-01-01T15:15:35.229Z,10.60
2023-01-01T15:20:37.375Z,10.50
2023-01-01T15:25:42.684Z,10.50
2023-01-01T15:30:44.828Z,10.50
2023-01-01T15:35:52.512Z,10.50
2023-01-01T15:40:54.750Z,10.50
2023-01-01T15:46:16.717Z,10.50
2023-01-01T15:51:24.330Z,10.40
2023-01-01T15:56:32.269Z,10.40
2023-01-01T16:01:36.941Z,10.40
2023-01-01T16:06:51.181Z,10.40
2023-01-01T16:11:55.006Z,10.40
2023-01-01T16:17:01.145Z,10.40
2023-01-01T16:22:03.526Z,10.40
2023-01-01T16:27:05.654Z,10.30
2023-01-01T16:32:15.008Z,10.20
2023-01-01T16:37:22.631Z,10.10
2023-01-01T16:42:25.353Z,10.10
2023-01-01T16:47:27.496Z,10.00
2023-01-01T16:52:33.517Z,10.00
2023-01-01T16:57:36.091Z,9.90
2023-01-01T17:02:38.413Z,9.90
2023-01-01T17:07:41.843Z,9.90
2023-01-01T17:12:43.985Z,10.00
2023-01-01T17:17:46.134Z,10.00
2023-01-01T17:22:48.333Z,10.00
2023-01-01T17:27:50.565Z,10.00
2023-01-01T17:32:52.741Z,9.90
2023-01-01T17:37:54.971Z,9.90
2023-01-01T17:42:57.057Z,9.80
2023-01-01T17:47:59.196Z,9.70
2023-01-01T17:53:01.382Z,9.60
2023-01-01T17:58:03.520Z,9.50
2023-01-01T18:03:05.786Z,9.50
2023-01-01T18:08:08.270Z,9.40
2023-01-01T18:13:10.406Z,9.40
2023-01-01T18:18:12.536Z,9.30
2023-01-01T18:23:14.673Z,9.30
2023-01-01T18:28:16.750Z,9.30
2023-01-01T18:33:18.897Z,9.30
2023-01-01T18:38:20.989Z,9.30
2023-01-01T18:43:25.415Z,9.30
2023-01-01T18:48:27.530Z,9.30
2023-01-01T18:53:31.194Z,9.30
2023-01-01T18:58:33.421Z,9.20
2023-01-01T19:03:41.409Z,9.20
2023-01-01T19:08:44.388Z,9.30
2023-01-01T19:13:48.763Z,9.30
2023-01-01T19:18:51.769Z,9.20
2023-01-01T19:23:55.117Z,9.20
2023-01-01T19:29:13.091Z,9.10
2023-01-01T19:34:15.353Z,9.10
2023-01-01T19:39:17.718Z,9.10
2023-01-01T19:44:24.738Z,9.10
2023-01-01T19:49:28.213Z,9.10
2023-01-01T19:54:30.360Z,9.00
2023-01-01T19:59:33.539Z,9.10
2023-01-01T20:04:36.083Z,9.00
2023-01-01T20:09:38.380Z,9.10
2023-01-01T20:14:40.611Z,9.00
2023-01-01T20:19:42.938Z,9.10
2023-01-01T20:24:45.228Z,9.00
2023-01-01T20:29:47.352Z,9.00
2023-01-01T20:34:49.569Z,8.90
2023-01-01T20:39:52.271Z,8.90
2023-01-01T20:44:54.432Z,8.90
2023-01-01T20:49:56.646Z,8.80
2023-01-01T20:54:58.761Z,8.80
2023-01-01T21:00:00.866Z,8.80
2023-01-01T21:05:04.820Z,8.80
2023-01-01T21:10:07.769Z,8.70
2023-01-01T21:15:16.357Z,8.70
2023-01-01T21:20:18.462Z,8.70
2023-01-01T21:25:50.524Z,8.60
2023-01-01T21:30:50.565Z,8.70
2023-01-01T21:35:52.960Z,8.70
2023-01-01T21:41:03.601Z,8.70
2023-01-01T21:46:05.806Z,8.70
2023-01-01T21:51:42.290Z,8.70
2023-01-01T21:56:59.608Z,8.70
2023-01-01T22:02:07.489Z,8.70
2023-01-01T22:07:56.405Z,8.80
2023-01-01T22:12:47.276Z,8.80
2023-01-01T22:17:49.509Z,8.90
2023-01-01T22:22:51.735Z,8.90
2023-01-01T22:27:54.679Z,8.90
2023-01-01T22:32:59.945Z,8.80
2023-01-01T22:38:06.490Z,8.80
2023-01-01T22:43:08.563Z,8.80
2023-01-01T22:48:36.958Z,8.80
2023-01-01T22:53:39.068Z,8.80
2023-01-01T22:58:41.433Z,8.80
2023-01-01T23:03:43.537Z,8.80
2023-01-01T23:08:45.941Z,8.80
2023-01-01T23:14:10.074Z,8.80
2023-01-01T23:19:12.328Z,8.80
2023-01-01T23:24:19.481Z,8.80
2023-01-01T23:29:23.102Z,8.80
2023-01-01T23:34:25.425Z,8.80
2023-01-01T23:39:27.608Z,8.80
2023-01-01T23:44:29.741Z,8.90
2023-01-01T23:49:33.002Z,8.90
2023-01-01T23:54:35.508Z,8.90
2023-01-01T23:59:37.671Z,8.90
